createdAt,value
2023-01-04T06:50:09.255Z,5.50
2023-01-04T06:53:10.958Z,5.70
2023-01-04T06:56:12.953Z,6.00
2023-01-04T06:59:14.862Z,6.30
2023-01-04T07:02:16.934Z,6.30
2023-01-04T07:05:18.816Z,6.30
2023-01-04T07:08:20.544Z,6.30
2023-01-04T07:11:22.591Z,6.20
2023-01-04T07:14:24.543Z,6.20
2023-01-04T07:17:29.951Z,6.20
2023-01-04T07:20:32.075Z,6.00
2023-01-04T07:23:33.758Z,6.00
2023-01-04T07:26:35.487Z,6.10
2023-01-04T07:29:37.501Z,6.10
2023-01-04T07:32:39.136Z,6.20
2023-01-04T07:35:40.794Z,6.30
2023-01-04T07:38:43.553Z,6.40
2023-01-04T07:41:46.021Z,6.40
2023-01-04T07:44:47.876Z,6.50
2023-01-04T07:47:49.525Z,6.50
2023-01-04T07:50:51.339Z,6.50
2023-01-04T07:53:53.332Z,6.60
2023-01-04T07:56:56.572Z,6.70
2023-01-04T07:59:58.317Z,6.80
2023-01-04T08:03:00.068Z,7.00
2023-01-04T08:06:05.110Z,7.10
2023-01-04T08:09:07.924Z,7.30
2023-01-04T08:12:09.573Z,7.50
2023-01-04T08:15:11.405Z,7.60
2023-01-04T08:18:13.279Z,7.60
2023-01-04T08:21:15.155Z,7.60
2023-01-04T08:24:19.306Z,7.60
2023-01-04T08:27:20.966Z,7.60
2023-01-04T08:30:22.839Z,7.70
2023-01-04T08:33:24.914Z,7.70
2023-01-04T08:36:28.962Z,7.70
2023-01-04T08:39:35.317Z,7.70
2023-01-04T08:42:37.463Z,7.80
2023-01-04T08:45:39.180Z,7.90
2023-01-04T08:48:41.709Z,8.00
2023-01-04T08:51:43.682Z,8.10
2023-01-04T08:54:45.374Z,8.20
2023-01-04T08:57:47.037Z,8.30
2023-01-04T09:00:49.199Z,8.30
2023-01-04T09:03:50.870Z,8.20
2023-01-04T09:06:52.739Z,8.20
2023-01-04T09:09:54.376Z,8.40
2023-01-04T09:12:56.378Z,8.60
2023-01-04T09:16:02.044Z,8.60
2023-01-04T09:19:04.872Z,8.60
2023-01-04T09:22:06.834Z,8.70
2023-01-04T09:25:09.384Z,8.70
2023-01-04T09:28:11.051Z,8.90
2023-01-04T09:31:17.095Z,9.10
2023-01-04T09:34:18.929Z,9.20
2023-01-04T09:37:20.590Z,9.20
2023-01-04T09:40:30.351Z,9.40
2023-01-04T09:43:42.481Z,9.50
2023-01-04T09:47:06.748Z,9.50
2023-01-04T09:50:48.332Z,9.70
2023-01-04T09:53:58.369Z,9.70
2023-01-04T09:57:00.818Z,9.90
2023-01-04T10:00:26.156Z,10.00
2023-01-04T10:03:34.036Z,10.10
2023-01-04T10:06:37.204Z,10.00
2023-01-04T10:09:38.850Z,10.10
2023-01-04T10:13:03.031Z,10.20
2023-01-04T10:16:17.340Z,10.30
2023-01-04T10:21:12.902Z,10.40
2023-01-04T10:23:39.357Z,10.40
2023-01-04T10:26:46.869Z,10.30
2023-01-04T10:30:10.752Z,10.30
2023-01-04T10:33:19.322Z,10.30
2023-01-04T10:36:25.239Z,10.30
2023-01-04T10:39:33.064Z,10.50
2023-01-04T10:42:46.975Z,10.50
2023-01-04T10:46:14.236Z,10.50
2023-01-04T10:49:23.058Z,10.60
2023-01-04T10:52:33.217Z,10.60
2023-01-04T10:56:24.877Z,10.80
2023-01-04T10:59:35.220Z,10.80
2023-01-04T11:02:50.519Z,11.00
2023-01-04T11:06:03.007Z,11.10
2023-01-04T11:09:13.498Z,11.20
2023-01-04T11:12:17.857Z,11.10
2023-01-04T11:15:19.983Z,11.20
2023-01-04T11:18:21.737Z,11.20
2023-01-04T11:21:27.858Z,11.20
2023-01-04T11:24:33.285Z,11.20
2023-01-04T11:27:44.733Z,11.20
2023-01-04T11:31:09.780Z,11.30
2023-01-04T11:34:11.601Z,11.40
2023-01-04T11:37:37.995Z,11.30
2023-01-04T11:40:41.232Z,11.30
2023-01-04T11:44:01.197Z,11.30
2023-01-04T11:47:20.544Z,11.40
2023-01-04T11:50:46.230Z,11.50
2023-01-04T11:53:58.038Z,11.50
2023-01-04T11:57:12.176Z,11.50
2023-01-04T12:00:15.992Z,11.50
2023-01-04T12:03:25.226Z,11.30
2023-01-04T12:06:45.492Z,11.40
2023-01-04T12:09:47.174Z,11.40
2023-01-04T12:12:48.938Z,11.40
2023-01-04T12:16:22.972Z,11.40
2023-01-04T12:19:25.578Z,11.60
2023-01-04T12:22:38.953Z,11.70
2023-01-04T12:25:45.835Z,11.70
2023-01-04T12:28:50.447Z,11.70
2023-01-04T12:32:16.173Z,11.80
2023-01-04T12:35:57.683Z,11.90
2023-01-04T12:39:02.882Z,11.80
2023-01-04T12:42:09.125Z,11.60
2023-01-04T12:45:15.334Z,11.70
2023-01-04T12:48:53.173Z,11.70
2023-01-04T12:55:32.296Z,11.80
2023-01-04T12:59:14.939Z,12.00
2023-01-04T13:02:19.977Z,12.10
2023-01-04T13:08:45.644Z,11.60
2023-01-04T13:11:57.693Z,11.70
2023-01-04T13:15:06.009Z,11.60
2023-01-04T13:18:35.020Z,11.70
2023-01-04T13:21:42.012Z,11.40
2023-01-04T13:24:45.182Z,11.50
2023-01-04T13:28:04.363Z,11.50
2023-01-04T13:31:06.064Z,11.80
2023-01-04T13:34:16.221Z,11.90
2023-01-04T13:37:42.213Z,12.00
2023-01-04T13:40:49.373Z,12.00
2023-01-04T13:44:07.880Z,11.90
2023-01-04T13:47:09.880Z,11.90
2023-01-04T13:50:31.536Z,11.90
2023-01-04T13:53:33.305Z,12.00
2023-01-04T13:56:35.351Z,11.80
2023-01-04T13:59:37.360Z,11.90
2023-01-04T14:02:39.319Z,11.90
2023-01-04T14:05:50.652Z,11.90
2023-01-04T14:08:58.661Z,11.70
2023-01-04T14:12:08.595Z,11.70
2023-01-04T14:15:24.146Z,11.70
2023-01-04T14:18:28.744Z,11.90
2023-01-04T14:21:36.458Z,12.00
2023-01-04T14:28:24.637Z,11.80
2023-01-04T14:31:30.192Z,11.80
2023-01-04T14:34:36.105Z,11.90
2023-01-04T14:37:37.832Z,11.90
2023-01-04T14:40:40.774Z,11.90
2023-01-04T14:43:46.680Z,11.90
2023-01-04T14:46:51.038Z,11.90
2023-01-04T14:49:52.905Z,11.90
2023-01-04T14:52:54.657Z,11.80
2023-01-04T14:55:56.681Z,11.80
2023-01-04T14:58:58.452Z,11.90
2023-01-04T15:02:00.278Z,11.80
2023-01-04T15:05:02.022Z,11.80
2023-01-04T15:08:04.106Z,11.80
2023-01-04T15:11:06.120Z,11.70
2023-01-04T15:14:07.972Z,11.80
2023-01-04T15:17:10.327Z,11.70
2023-01-04T15:20:12.830Z,11.60
2023-01-04T15:23:14.630Z,11.40
2023-01-04T15:26:16.307Z,11.40
2023-01-04T15:29:18.252Z,11.50
2023-01-04T15:32:19.901Z,11.50
2023-01-04T15:35:21.883Z,11.50
2023-01-04T15:38:23.562Z,11.60
2023-01-04T15:41:45.337Z,11.60
2023-01-04T15:44:47.004Z,11.60
2023-01-04T15:47:48.698Z,11.60
2023-01-04T15:50:50.443Z,11.60
2023-01-04T15:53:53.351Z,11.60
2023-01-04T15:56:55.655Z,11.60
2023-01-04T15:59:57.467Z,11.50
2023-01-04T16:02:59.302Z,11.60
2023-01-04T16:06:08.539Z,11.60
2023-01-04T16:09:10.303Z,11.70
2023-01-04T16:12:31.926Z,11.60
2023-01-04T16:15:33.622Z,11.60
2023-01-04T16:18:36.157Z,11.70
2023-01-04T16:21:37.794Z,11.70
2023-01-04T16:28:01.246Z,11.60
2023-01-04T16:31:04.126Z,11.70
2023-01-04T16:34:06.085Z,11.70
2023-01-04T16:37:07.841Z,11.70
2023-01-04T16:40:10.290Z,11.80
2023-01-04T16:43:12.004Z,11.80
2023-01-04T16:46:16.869Z,11.60
2023-01-04T16:49:18.602Z,11.60
2023-01-04T16:52:20.446Z,11.70
2023-01-04T16:55:24.247Z,11.60
2023-01-04T16:58:26.136Z,11.60
